Aérodrome :
LOGIN :

S'inscrire | Disclaimer

   EN    FR    IT 

 










Légende :    VFR   VFR Marginal   IFR   IFR Intensif   IFR Très Intensif
Visi : 
Plafond : 
>= 8 km
>= 3000ft
5 à 8 km
1000 à 3000 ft
1500m à 5 km
500 à 1000 ft
800 à 1500m
200 à 500 ft
< 800m
< 200 ft
Symboles :   Orages  Brouillard  Fortes neiges  Fortes précipitations  Vent > 20 kt
SIGMETs :   Divers  Orages  Givrage  Turbulence  Onde Orograph.  Cendres Volcan.






- Altitude de l'aérodrome : 1460 ft


LSMA - Alpnach

DERNIER METAR :
  • 182220Z AUTO 21003KT 190V250 9999NDV NCD 20/18 Q1021 RMK

METARs EXPIRÉS :
  • 182150Z AUTO 00000KT 9999NDV NCD 20/18 Q1021 RMK
  • 182120Z AUTO 00000KT 9999NDV NCD 21/19 Q1021 RMK
  • 182050Z AUTO 25002KT 9999NDV FEW063 21/18 Q1021 RMK
  • 182020Z AUTO VRB01KT 9999NDV -SHRA FEW065 22/19 Q1021 RMK
  • 181950Z AUTO VRB02KT 2800NDV -SHRA NCD 22/18 Q1021 RMK
  • 181920Z AUTO 00000KT 9999NDV FEW061 23/20 Q1021 RMK
  • 181850Z AUTO 00000KT 9999NDV FEW061 24/20 Q1021 RMK
  • 181820Z AUTO 00000KT 9999NDV SCT060 25/20 Q1020 RMK
  • 181750Z AUTO VRB02KT 9999NDV FEW069 25/19 Q1020 RMK
  • 181720Z AUTO 00000KT 9999NDV NCD 26/19 Q1020 RMK

Prévision TAF périmée.



MET'MAP, la Météo Aéronautique d'un coup d'oeil ! - Copyright ORBIFLY Décembre 2007 - Disclaimer

ORBIFLY MET'MAP TEAM :

Programmation & Développement : Alexandra Zaïnal
Sur une idée originale de : Baudouin d'Aumeries
Soutien technique & logistique : Manuel Goepfert
Assistance : Marc-Olivier Méhu




SOURCES & CREDITS :

   NOAA